createdAt,value
2023-03-11T00:01:08.287Z,15.61
2023-03-11T00:03:36.293Z,15.72
2023-03-11T00:06:06.438Z,15.65
2023-03-11T00:08:34.397Z,15.59
2023-03-11T00:11:02.423Z,15.67
2023-03-11T00:13:30.609Z,15.61
2023-03-11T00:15:59.796Z,15.68
2023-03-11T00:18:30.152Z,15.56
2023-03-11T00:20:58.623Z,15.74
2023-03-11T00:23:28.014Z,15.57
2023-03-11T00:25:56.002Z,15.62
2023-03-11T00:28:26.118Z,15.66
2023-03-11T00:30:54.165Z,15.59
2023-03-11T00:33:22.188Z,15.68
2023-03-11T00:35:51.160Z,15.71
2023-03-11T00:38:19.208Z,15.69
2023-03-11T00:40:49.088Z,15.75
2023-03-11T00:43:17.187Z,15.74
2023-03-11T00:45:45.251Z,15.58
2023-03-11T00:48:13.237Z,15.59
2023-03-11T00:50:41.524Z,15.59
2023-03-11T00:53:09.498Z,15.57
2023-03-11T00:55:37.521Z,15.54
2023-03-11T00:58:07.421Z,15.50
2023-03-11T01:00:35.628Z,15.57
2023-03-11T01:03:03.703Z,15.55
2023-03-11T01:05:32.372Z,15.49
2023-03-11T01:08:00.434Z,15.52
2023-03-11T01:10:28.616Z,15.49
2023-03-11T01:12:56.608Z,15.49
2023-03-11T01:15:27.572Z,15.42
2023-03-11T01:17:55.603Z,15.42
2023-03-11T01:20:23.756Z,15.37
2023-03-11T01:22:51.772Z,15.28
2023-03-11T01:25:20.439Z,15.25
2023-03-11T01:27:48.417Z,15.24
2023-03-11T01:30:17.542Z,15.18
2023-03-11T01:32:46.955Z,15.15
2023-03-11T01:35:15.299Z,15.05
2023-03-11T01:37:43.274Z,15.16
2023-03-11T01:40:15.257Z,15.03
2023-03-11T01:42:43.198Z,14.97
2023-03-11T01:45:50.114Z,14.97
2023-03-11T01:48:19.425Z,14.86
2023-03-11T01:50:49.720Z,14.85
2023-03-11T01:53:17.740Z,14.82
2023-03-11T01:55:45.942Z,14.78
2023-03-11T01:58:17.172Z,14.72
2023-03-11T02:00:45.167Z,14.65
2023-03-11T02:03:15.685Z,14.56
2023-03-11T02:05:45.144Z,14.50
2023-03-11T02:08:13.099Z,14.41
2023-03-11T02:10:41.298Z,14.43
2023-03-11T02:13:09.292Z,14.43
2023-03-11T02:15:39.576Z,14.49
2023-03-11T02:18:08.613Z,14.42
2023-03-11T02:20:41.993Z,14.38
2023-03-11T02:23:11.328Z,14.37
2023-03-11T02:25:43.061Z,14.42
2023-03-11T02:28:13.739Z,14.40
2023-03-11T02:30:42.247Z,14.41
2023-03-11T02:33:10.497Z,14.47
2023-03-11T02:35:38.550Z,14.46
2023-03-11T02:38:06.513Z,14.49
2023-03-11T02:40:53.137Z,14.64
2023-03-11T02:43:24.700Z,14.64
2023-03-11T02:45:52.687Z,14.60
2023-03-11T02:48:20.689Z,14.53
2023-03-11T02:50:48.702Z,14.56
2023-03-11T02:53:16.642Z,14.61
2023-03-11T02:55:44.576Z,14.67
2023-03-11T02:58:12.559Z,14.70
2023-03-11T03:00:41.963Z,14.62
2023-03-11T03:03:10.691Z,14.60
2023-03-11T03:05:38.636Z,14.58
2023-03-11T03:08:06.830Z,14.52
2023-03-11T03:10:34.846Z,14.45
2023-03-11T03:13:02.846Z,14.45
2023-03-11T03:15:30.887Z,14.43
2023-03-11T03:18:00.164Z,14.49
2023-03-11T03:20:28.235Z,14.50
2023-03-11T03:22:56.255Z,14.48
2023-03-11T03:25:24.242Z,14.41
2023-03-11T03:27:52.196Z,14.32
2023-03-11T03:30:20.293Z,14.27
2023-03-11T03:32:48.336Z,14.33
2023-03-11T03:35:17.900Z,14.25
2023-03-11T03:37:45.909Z,14.33
2023-03-11T03:40:14.565Z,14.41
2023-03-11T03:42:42.566Z,14.48
2023-03-11T03:45:11.918Z,14.47
2023-03-11T03:47:40.009Z,14.56
2023-03-11T03:50:09.324Z,14.49
2023-03-11T03:52:38.724Z,14.47
2023-03-11T03:55:07.161Z,14.54
2023-03-11T03:57:35.109Z,14.59
2023-03-11T04:00:04.394Z,14.68
2023-03-11T04:02:32.373Z,14.65
2023-03-11T04:05:00.344Z,14.64
2023-03-11T04:07:28.371Z,14.64
2023-03-11T04:09:59.105Z,14.71
2023-03-11T04:12:27.087Z,14.75
2023-03-11T04:14:55.077Z,14.68
2023-03-11T04:17:23.033Z,14.61
2023-03-11T04:19:51.034Z,14.42
2023-03-11T04:22:18.962Z,14.35
2023-03-11T04:24:47.190Z,14.20
2023-03-11T04:27:16.543Z,13.99
2023-03-11T04:29:44.536Z,13.83
2023-03-11T04:32:12.546Z,13.80
2023-03-11T04:34:40.842Z,13.71
2023-03-11T04:37:08.817Z,13.68
2023-03-11T04:39:36.809Z,13.69
2023-03-11T04:42:04.875Z,13.63
2023-03-11T04:44:36.076Z,13.58
2023-03-11T04:47:04.004Z,13.60
2023-03-11T04:49:31.971Z,13.56
2023-03-11T04:51:59.982Z,13.60
2023-03-11T04:54:27.937Z,13.61
2023-03-11T04:56:55.904Z,13.62
2023-03-11T04:59:23.845Z,13.66
2023-03-11T05:01:53.576Z,13.69
2023-03-11T05:04:21.576Z,13.69
2023-03-11T05:06:51.236Z,13.74
2023-03-11T05:09:19.219Z,13.83
2023-03-11T05:11:47.185Z,13.85
2023-03-11T05:14:15.168Z,13.96
2023-03-11T05:16:43.160Z,13.89
2023-03-11T05:19:26.368Z,13.73
2023-03-11T05:21:54.385Z,13.77
2023-03-11T05:24:22.372Z,13.71
2023-03-11T05:26:50.398Z,13.68
2023-03-11T05:29:18.463Z,13.67
2023-03-11T05:31:47.002Z,13.62
2023-03-11T05:34:16.731Z,13.69
2023-03-11T05:36:44.668Z,13.67
2023-03-11T05:39:12.684Z,13.56
2023-03-11T05:41:40.678Z,13.48
2023-03-11T05:44:08.648Z,13.35
2023-03-11T05:46:36.668Z,13.28
2023-03-11T05:49:04.670Z,13.19
2023-03-11T05:51:34.219Z,13.05
2023-03-11T05:54:02.146Z,12.96
2023-03-11T05:56:30.136Z,12.96
2023-03-11T05:58:58.672Z,12.86
2023-03-11T06:01:26.599Z,12.87
2023-03-11T06:03:54.586Z,12.82
2023-03-11T06:06:23.922Z,12.74
2023-03-11T06:08:53.177Z,12.72
2023-03-11T06:11:21.143Z,12.64
2023-03-11T06:13:49.068Z,12.62
2023-03-11T06:16:17.067Z,12.59
2023-03-11T06:18:45.073Z,12.51
2023-03-11T06:21:14.727Z,12.52
2023-03-11T06:23:42.656Z,12.61
2023-03-11T06:26:13.060Z,12.62
2023-03-11T06:28:41.005Z,12.72
2023-03-11T06:31:09.212Z,12.83
2023-03-11T06:33:37.228Z,12.88
2023-03-11T06:36:05.919Z,12.92
2023-03-11T06:38:36.275Z,12.97
2023-03-11T06:41:06.021Z,13.11
2023-03-11T06:43:35.428Z,13.35
2023-03-11T06:46:03.575Z,13.58
2023-03-11T06:48:31.597Z,13.71
2023-03-11T06:51:00.073Z,13.73
2023-03-11T06:53:28.081Z,14.01
2023-03-11T06:56:00.666Z,13.98
2023-03-11T06:58:28.684Z,14.03
2023-03-11T07:01:01.766Z,14.07
2023-03-11T07:03:29.770Z,14.33
2023-03-11T07:05:58.096Z,14.42
2023-03-11T07:08:26.332Z,14.45
2023-03-11T07:11:04.503Z,14.82
2023-03-11T07:13:32.472Z,14.94
2023-03-11T07:16:05.853Z,14.97
2023-03-11T07:18:33.844Z,15.12
2023-03-11T07:21:02.730Z,15.04
2023-03-11T07:23:30.694Z,15.15
2023-03-11T07:25:58.647Z,15.12
2023-03-11T07:28:26.961Z,15.12
2023-03-11T07:30:55.029Z,14.92
2023-03-11T07:33:24.836Z,14.63
2023-03-11T07:35:52.940Z,14.68
2023-03-11T07:38:21.644Z,14.69
2023-03-11T07:40:49.716Z,14.47
2023-03-11T07:43:17.667Z,14.43
2023-03-11T07:45:45.681Z,14.38
2023-03-11T07:48:13.617Z,14.41
2023-03-11T07:50:42.996Z,14.63
2023-03-11T07:53:10.957Z,14.65
2023-03-11T07:55:38.883Z,14.79
2023-03-11T07:58:07.090Z,14.87
2023-03-11T08:00:35.030Z,15.14
2023-03-11T08:03:02.975Z,15.66
2023-03-11T08:05:34.639Z,16.01
2023-03-11T08:08:04.221Z,16.19
2023-03-11T08:10:32.324Z,16.53
2023-03-11T08:13:00.260Z,16.83
2023-03-11T08:15:28.253Z,17.43
2023-03-11T08:17:58.989Z,18.10
2023-03-11T08:20:27.014Z,18.66
2023-03-11T08:22:58.238Z,18.92
2023-03-11T08:25:29.358Z,19.25
2023-03-11T08:27:57.408Z,19.58
2023-03-11T08:30:25.562Z,19.28
2023-03-11T08:32:53.575Z,19.44
2023-03-11T08:35:21.774Z,19.60
2023-03-11T08:37:49.833Z,19.38
2023-03-11T08:40:17.898Z,19.09
2023-03-11T08:42:47.240Z,18.63
2023-03-11T08:45:15.217Z,18.57
2023-03-11T08:47:43.205Z,18.33
2023-03-11T08:50:14.225Z,17.79
2023-03-11T08:52:43.540Z,17.64
2023-03-11T08:55:13.971Z,17.61
2023-03-11T08:57:42.428Z,17.75
2023-03-11T09:00:13.685Z,17.70
2023-03-11T09:02:41.802Z,17.89
2023-03-11T09:05:10.560Z,17.81
2023-03-11T09:07:38.539Z,17.92
2023-03-11T09:10:06.717Z,17.90
2023-03-11T09:12:34.691Z,17.61
2023-03-11T09:15:02.656Z,17.65
2023-03-11T09:17:32.320Z,17.49
2023-03-11T09:20:00.333Z,17.75
2023-03-11T09:22:28.362Z,18.28
2023-03-11T09:24:56.390Z,18.83
2023-03-11T09:27:24.402Z,19.37
2023-03-11T09:29:52.365Z,19.85
2023-03-11T09:32:20.355Z,19.76
2023-03-11T09:34:49.715Z,19.70
2023-03-11T09:37:17.707Z,19.91
2023-03-11T09:39:45.699Z,20.45
2023-03-11T09:42:18.533Z,20.69
2023-03-11T09:44:47.036Z,20.97
2023-03-11T09:47:32.594Z,21.35
2023-03-11T09:50:22.597Z,21.69
2023-03-11T09:52:57.722Z,21.17
2023-03-11T09:55:32.884Z,20.87
2023-03-11T09:58:03.053Z,20.36
2023-03-11T10:00:31.026Z,20.27
2023-03-11T10:02:59.011Z,20.19
2023-03-11T10:05:29.321Z,20.34
2023-03-11T10:08:00.657Z,20.58
2023-03-11T10:10:30.070Z,20.75
2023-03-11T10:13:00.991Z,21.58
2023-03-11T10:15:37.698Z,21.85
2023-03-11T10:18:14.246Z,21.83
2023-03-11T10:20:48.808Z,21.26
2023-03-11T10:23:23.304Z,21.61
2023-03-11T10:25:56.164Z,21.49
2023-03-11T10:28:25.409Z,21.22
2023-03-11T10:30:54.554Z,21.07
2023-03-11T10:33:25.134Z,21.15
2023-03-11T10:35:55.624Z,21.44
2023-03-11T10:38:24.535Z,21.46
2023-03-11T10:40:53.059Z,22.23
2023-03-11T10:43:22.950Z,22.20
2023-03-11T10:45:51.316Z,21.94
2023-03-11T10:48:20.444Z,21.73
2023-03-11T10:50:57.125Z,21.75
2023-03-11T10:53:25.109Z,20.92
2023-03-11T10:55:53.931Z,20.85
2023-03-11T10:58:23.711Z,20.65
2023-03-11T11:01:05.235Z,20.39
2023-03-11T11:03:33.317Z,20.37
2023-03-11T11:06:04.402Z,20.06
2023-03-11T11:08:32.423Z,20.13
2023-03-11T11:11:00.737Z,20.56
2023-03-11T11:13:30.288Z,21.13
2023-03-11T11:16:00.285Z,21.78
2023-03-11T11:18:30.421Z,22.56
2023-03-11T11:21:05.613Z,23.44
2023-03-11T11:23:36.046Z,24.20
2023-03-11T11:26:05.507Z,24.30
2023-03-11T11:28:33.746Z,23.93
2023-03-11T11:31:02.449Z,23.65
2023-03-11T11:33:31.175Z,22.99
2023-03-11T11:36:00.393Z,22.26
2023-03-11T11:38:30.221Z,22.83
2023-03-11T11:40:59.671Z,22.43
2023-03-11T11:43:43.908Z,22.38
2023-03-11T11:46:16.482Z,22.68
2023-03-11T11:48:48.472Z,22.22
2023-03-11T11:51:19.569Z,21.79
2023-03-11T11:53:51.312Z,21.40
2023-03-11T11:56:19.240Z,20.92
2023-03-11T11:58:47.232Z,20.44
2023-03-11T12:01:16.492Z,20.46
2023-03-11T12:04:18.598Z,20.33
2023-03-11T12:06:49.026Z,20.10
2023-03-11T12:09:24.409Z,19.85
2023-03-11T12:11:53.831Z,19.90
2023-03-11T12:14:23.156Z,19.79
2023-03-11T12:16:53.887Z,20.61
2023-03-11T12:19:27.446Z,21.84
2023-03-11T12:22:07.184Z,20.97
2023-03-11T12:24:51.528Z,20.19
2023-03-11T12:27:22.506Z,19.49
2023-03-11T12:29:51.722Z,19.49
2023-03-11T12:32:23.188Z,19.58
2023-03-11T12:34:51.188Z,20.12
2023-03-11T12:37:19.797Z,20.54
2023-03-11T12:39:49.139Z,20.46
2023-03-11T12:42:18.654Z,20.28
2023-03-11T12:44:46.857Z,20.10
2023-03-11T12:47:35.244Z,19.94
2023-03-11T12:50:39.470Z,19.64
2023-03-11T12:53:07.392Z,19.71
2023-03-11T12:55:37.374Z,19.83
2023-03-11T12:58:30.908Z,19.31
2023-03-11T13:01:15.812Z,19.29
2023-03-11T13:03:49.798Z,19.09
2023-03-11T13:06:25.478Z,19.30
2023-03-11T13:08:54.771Z,19.29
2023-03-11T13:11:37.703Z,19.29
2023-03-11T13:14:38.557Z,19.44
2023-03-11T13:17:25.483Z,19.43
2023-03-11T13:19:54.957Z,19.25
2023-03-11T13:23:16.181Z,19.21
2023-03-11T13:25:44.269Z,19.40
2023-03-11T13:28:35.795Z,19.58
2023-03-11T13:31:22.858Z,19.34
2023-03-11T13:33:52.441Z,19.43
2023-03-11T13:36:33.716Z,19.62
2023-03-11T13:39:49.203Z,19.73
2023-03-11T13:42:21.237Z,19.98
2023-03-11T13:44:50.575Z,19.83
2023-03-11T13:47:19.013Z,19.78
2023-03-11T13:49:47.997Z,19.60
2023-03-11T13:52:16.789Z,19.60
2023-03-11T13:54:46.744Z,19.54
2023-03-11T13:57:25.822Z,19.51
2023-03-11T13:59:55.618Z,19.34
2023-03-11T14:02:25.121Z,19.01
2023-03-11T14:04:54.421Z,18.79
2023-03-11T14:07:26.251Z,18.61
2023-03-11T14:10:21.720Z,18.68
2023-03-11T14:12:49.666Z,18.66
2023-03-11T14:15:21.622Z,18.57
2023-03-11T14:17:49.549Z,18.47
2023-03-11T14:20:18.337Z,18.45
2023-03-11T14:22:47.144Z,18.30
2023-03-11T14:25:19.665Z,18.22
2023-03-11T14:27:54.254Z,18.05
2023-03-11T14:30:25.766Z,17.98
2023-03-11T14:33:00.936Z,17.84
2023-03-11T14:35:29.041Z,17.77
2023-03-11T14:37:56.998Z,17.59
2023-03-11T14:40:29.450Z,17.58
2023-03-11T14:42:58.439Z,17.61
2023-03-11T14:45:29.837Z,17.70
2023-03-11T14:47:59.423Z,17.81
2023-03-11T14:50:28.263Z,17.71
2023-03-11T14:52:57.767Z,17.64
2023-03-11T14:55:28.414Z,17.54
2023-03-11T14:57:56.874Z,17.37
2023-03-11T15:00:27.269Z,17.35
2023-03-11T15:03:00.875Z,17.31
2023-03-11T15:05:32.226Z,17.22
2023-03-11T15:08:01.362Z,16.97
2023-03-11T15:10:29.314Z,16.82
2023-03-11T15:13:06.391Z,16.70
2023-03-11T15:15:35.733Z,16.59
2023-03-11T15:18:04.491Z,16.45
2023-03-11T15:20:33.432Z,16.44
2023-03-11T15:23:02.164Z,16.38
2023-03-11T15:25:31.633Z,16.23
2023-03-11T15:27:59.608Z,16.13
2023-03-11T15:30:28.913Z,16.06
2023-03-11T15:32:58.381Z,16.02
2023-03-11T15:35:26.815Z,16.00
2023-03-11T15:38:13.106Z,16.04
2023-03-11T15:40:45.666Z,16.00
2023-03-11T15:43:21.990Z,15.91
2023-03-11T15:45:50.050Z,15.89
2023-03-11T15:48:19.421Z,15.80
2023-03-11T15:50:53.310Z,15.85
2023-03-11T15:53:22.305Z,15.77
2023-03-11T15:55:50.260Z,15.76
2023-03-11T15:58:18.905Z,15.62
2023-03-11T16:00:48.460Z,15.59
2023-03-11T16:03:16.740Z,15.48
2023-03-11T16:05:46.166Z,15.38
2023-03-11T16:08:14.143Z,15.29
2023-03-11T16:10:42.558Z,15.10
2023-03-11T16:13:11.484Z,14.93
2023-03-11T16:15:39.545Z,14.83
2023-03-11T16:18:08.855Z,14.82
2023-03-11T16:20:38.737Z,14.76
2023-03-11T16:23:08.042Z,14.83
2023-03-11T16:25:37.438Z,14.70
2023-03-11T16:28:05.873Z,14.65
2023-03-11T16:30:34.893Z,14.59
2023-03-11T16:33:04.837Z,14.37
2023-03-11T16:35:33.243Z,14.20
2023-03-11T16:38:01.276Z,14.07
2023-03-11T16:40:30.822Z,13.82
2023-03-11T16:43:00.642Z,13.72
2023-03-11T16:45:28.632Z,13.62
2023-03-11T16:47:56.620Z,13.41
2023-03-11T16:50:25.306Z,13.24
2023-03-11T16:52:53.357Z,13.13
2023-03-11T16:55:21.270Z,12.92
2023-03-11T16:57:50.604Z,12.74
2023-03-11T17:00:19.180Z,12.71
2023-03-11T17:02:47.149Z,12.63
2023-03-11T17:05:15.162Z,12.62
2023-03-11T17:07:43.135Z,12.51
2023-03-11T17:10:11.945Z,12.55
2023-03-11T17:12:39.892Z,12.40
2023-03-11T17:15:10.067Z,12.33
2023-03-11T17:17:38.016Z,12.38
2023-03-11T17:20:07.845Z,12.40
2023-03-11T17:22:35.814Z,12.38
2023-03-11T17:25:03.811Z,12.33
2023-03-11T17:27:32.680Z,12.25
2023-03-11T17:30:01.038Z,12.16
2023-03-11T17:32:30.409Z,12.04
2023-03-11T17:34:58.476Z,12.04
2023-03-11T17:37:26.444Z,11.96
2023-03-11T17:39:54.779Z,11.82
2023-03-11T17:42:22.691Z,11.81
2023-03-11T17:44:52.171Z,11.81
2023-03-11T17:47:21.405Z,11.88
2023-03-11T17:49:50.940Z,11.91
2023-03-11T17:52:18.937Z,11.85
2023-03-11T17:54:46.898Z,11.89
2023-03-11T17:57:14.865Z,11.90
2023-03-11T17:59:42.787Z,11.82
2023-03-11T18:02:13.653Z,11.81
2023-03-11T18:04:43.410Z,11.79
2023-03-11T18:07:12.753Z,11.84
2023-03-11T18:09:40.654Z,11.72
2023-03-11T18:12:08.707Z,11.53
2023-03-11T18:14:37.275Z,10.91
2023-03-11T18:17:05.416Z,10.49
2023-03-11T18:19:33.358Z,10.20
2023-03-11T18:22:01.272Z,9.83
2023-03-11T18:24:30.603Z,9.57
2023-03-11T18:26:58.523Z,9.55
2023-03-11T18:29:26.486Z,9.64
2023-03-11T18:31:54.497Z,9.71
2023-03-11T18:34:23.289Z,9.81
2023-03-11T18:36:51.256Z,9.86
2023-03-11T18:39:19.335Z,9.94
2023-03-11T18:41:48.667Z,10.00
2023-03-11T18:44:16.657Z,10.16
2023-03-11T18:46:44.629Z,10.20
2023-03-11T18:49:12.984Z,10.29
2023-03-11T18:51:41.136Z,10.31
2023-03-11T18:54:09.159Z,10.34
2023-03-11T18:56:37.103Z,10.39
2023-03-11T18:59:07.857Z,10.50
2023-03-11T19:01:35.852Z,10.54
2023-03-11T19:04:03.858Z,10.49
2023-03-11T19:06:31.888Z,10.52
2023-03-11T19:08:59.911Z,10.60
2023-03-11T19:11:27.924Z,10.54
2023-03-11T19:13:56.154Z,10.54
2023-03-11T19:16:26.300Z,10.54
2023-03-11T19:18:55.239Z,10.45
2023-03-11T19:21:23.241Z,10.53
2023-03-11T19:23:52.892Z,10.60
2023-03-11T19:26:23.879Z,10.52
2023-03-11T19:28:55.997Z,10.48
2023-03-11T19:31:25.353Z,10.44
2023-03-11T19:33:53.315Z,10.46
2023-03-11T19:36:21.260Z,10.38
2023-03-11T19:38:49.192Z,10.34
2023-03-11T19:41:18.724Z,10.36
2023-03-11T19:43:46.785Z,10.35
2023-03-11T19:46:15.890Z,10.32
2023-03-11T19:48:45.296Z,10.22
2023-03-11T19:51:13.304Z,10.07
2023-03-11T19:53:41.846Z,9.97
2023-03-11T19:56:10.090Z,9.98
2023-03-11T19:58:38.149Z,9.83
2023-03-11T20:01:06.121Z,9.80
2023-03-11T20:03:34.157Z,9.70
2023-03-11T20:06:06.521Z,9.64
2023-03-11T20:08:36.795Z,9.59
2023-03-11T20:11:05.218Z,9.54
2023-03-11T20:13:33.227Z,9.52
2023-03-11T20:16:06.296Z,9.45
2023-03-11T20:18:34.308Z,9.43
2023-03-11T20:21:07.287Z,9.30
2023-03-11T20:23:35.403Z,9.18
2023-03-11T20:26:06.444Z,9.08
2023-03-11T20:28:34.457Z,8.96
2023-03-11T20:31:11.612Z,8.78
2023-03-11T20:33:39.662Z,8.85
2023-03-11T20:36:10.161Z,8.74
2023-03-11T20:38:38.166Z,8.71
2023-03-11T20:41:08.174Z,8.69
2023-03-11T20:43:36.367Z,8.58
2023-03-11T20:46:04.531Z,8.57
2023-03-11T20:48:32.507Z,8.60
2023-03-11T20:51:01.539Z,8.54
2023-03-11T20:53:31.522Z,8.48
2023-03-11T20:55:59.587Z,8.40
2023-03-11T20:58:27.637Z,8.38
2023-03-11T21:00:55.604Z,8.44
2023-03-11T21:03:23.790Z,8.36
2023-03-11T21:05:51.905Z,8.35
2023-03-11T21:08:20.125Z,8.42
2023-03-11T21:10:49.519Z,8.35
2023-03-11T21:13:17.491Z,8.32
2023-03-11T21:15:45.483Z,8.25
2023-03-11T21:18:13.528Z,8.18
2023-03-11T21:20:41.523Z,8.17
2023-03-11T21:23:09.843Z,8.14
2023-03-11T21:25:39.279Z,7.98
2023-03-11T21:28:08.557Z,7.91
2023-03-11T21:30:36.578Z,7.87
2023-03-11T21:33:04.581Z,7.79
2023-03-11T21:35:32.575Z,7.79
2023-03-11T21:38:00.782Z,7.74
2023-03-11T21:40:28.941Z,7.74
2023-03-11T21:42:56.984Z,7.75
2023-03-11T21:45:26.521Z,7.67
2023-03-11T21:47:54.512Z,7.70
2023-03-11T21:50:22.535Z,7.73
2023-03-11T21:52:50.624Z,7.71
2023-03-11T21:55:18.844Z,7.65
2023-03-11T21:57:46.984Z,7.66
2023-03-11T22:00:15.517Z,7.69
2023-03-11T22:02:44.809Z,7.60
2023-03-11T22:05:13.161Z,7.58
2023-03-11T22:07:41.302Z,7.58
2023-03-11T22:10:09.570Z,7.47
2023-03-11T22:12:37.533Z,7.41
2023-03-11T22:15:06.268Z,7.36
2023-03-11T22:17:34.294Z,7.39
2023-03-11T22:20:05.180Z,7.43
2023-03-11T22:22:33.314Z,7.42
2023-03-11T22:25:01.323Z,7.34
2023-03-11T22:27:29.273Z,7.34
2023-03-11T22:29:57.189Z,7.29
2023-03-11T22:32:25.216Z,7.24
2023-03-11T22:34:53.156Z,7.23
2023-03-11T22:37:22.503Z,7.25
2023-03-11T22:39:50.681Z,7.22
2023-03-11T22:42:18.594Z,7.26
2023-03-11T22:44:46.525Z,7.35
2023-03-11T22:47:14.455Z,7.29
2023-03-11T22:49:42.637Z,7.25
2023-03-11T22:52:10.720Z,7.34
2023-03-11T22:54:40.111Z,7.29
2023-03-11T22:57:08.083Z,7.30
2023-03-11T22:59:36.040Z,7.38
2023-03-11T23:02:03.960Z,7.39
2023-03-11T23:04:31.874Z,7.33
2023-03-11T23:06:59.853Z,7.32
2023-03-11T23:09:27.804Z,7.34
2023-03-11T23:11:57.139Z,7.30
2023-03-11T23:14:37.858Z,7.21
2023-03-11T23:17:11.939Z,7.22
2023-03-11T23:19:39.932Z,7.20
2023-03-11T23:22:07.910Z,7.31
2023-03-11T23:24:35.870Z,7.20
2023-03-11T23:27:05.902Z,7.24
2023-03-11T23:29:33.819Z,7.17
2023-03-11T23:32:01.761Z,7.13
2023-03-11T23:34:29.687Z,7.08
2023-03-11T23:36:57.632Z,7.09
2023-03-11T23:39:25.561Z,7.16
2023-03-11T23:41:53.534Z,7.16
2023-03-11T23:44:22.842Z,7.14
2023-03-11T23:46:50.791Z,7.12
2023-03-11T23:49:18.760Z,7.22
2023-03-11T23:51:46.757Z,7.21
2023-03-11T23:54:14.736Z,7.14
2023-03-11T23:56:42.649Z,7.15
2023-03-11T23:59:10.639Z,7.09
